This is the latest recevied weather packets stored in our database for station/object DG0PX-12. If no packets are shown the sender has not sent any weather packets the latest 1 day(s).
| Time | Temp. | Humidity | Pressure | Rain* | Wind** | Luminosity | Snow |
|---|---|---|---|---|---|---|---|
| 1777746597 | 18.33° C | 38% | 950 hPa | - | - | - | - |
| 1777745697 | 19.44° C | 37% | 949.9 hPa | - | - | - | - |
| 1777744797 | 22.22° C | 25% | 950 hPa | - | - | - | - |
| 1777743897 | 22.22° C | 25% | 950.1 hPa | - | - | - | - |
| 1777742997 | 24.44° C | 20% | 950.2 hPa | - | - | - | - |
| 1777742097 | 24.44° C | 20% | 950.2 hPa | - | - | - | - |
| 1777741197 | 24.44° C | 19% | 950.4 hPa | - | - | - | - |
| 1777740296 | 24.44° C | 17% | 950.4 hPa | - | - | - | - |
| 1777739396 | 24.44° C | 17% | 950.7 hPa | - | - | - | - |
| 1777738496 | 27.78° C | 15% | 950.9 hPa | - | - | - | - |
| 1777737595 | 29.44° C | 13% | 951.1 hPa | - | - | - | - |
| 1777736695 | 29.44° C | 15% | 951.2 hPa | - | - | - | - |
| 1777735795 | 26.67° C | 16% | 951.5 hPa | - | - | - | - |
| 1777734895 | 28.33° C | 16% | 951.6 hPa | - | - | - | - |
| 1777733995 | 28.33° C | 17% | 951.7 hPa | - | - | - | - |
| 1777733094 | 28.89° C | 17% | 951.9 hPa | - | - | - | - |
| 1777732194 | 30° C | 17% | 952.1 hPa | - | - | - | - |
| 1777731294 | 29.44° C | 18% | 952.1 hPa | - | - | - | - |
| 1777730394 | 28.33° C | 19% | 952.3 hPa | - | - | - | - |
| 1777729494 | 27.78° C | 20% | 952.4 hPa | - | - | - | - |
| 1777728594 | 29.44° C | 18% | 952.8 hPa | - | - | - | - |
| 1777727693 | 26.11° C | 21% | 952.8 hPa | - | - | - | - |
| 1777726793 | 28.33° C | 19% | 953.1 hPa | - | - | - | - |
| 1777725893 | 28.89° C | 19% | 953.4 hPa | - | - | - | - |
| 1777724993 | 28.89° C | 19% | 953.5 hPa | - | - | - | - |
* Rain since midnight (hover to see other rain measurements)
** Current wind speed in m/s (hover to see current wind gust speed)